Farmington, Utah
Current Conditions -  °F | °C
As of 2:58 PM on Friday 19 Dec 2014 (Local Time) from KHIF Reporting Station
Broken Clouds Broken Clouds  
Wind Chill: 38°   Ceiling: 7000
Heat Index: 44°   Visibility: 10mi
Dew Point: 26°   Wind: 13mph
Humidity: 49%   Direction: 190°S
Pressure: 30.11"   Gusts: NA
Location:  40.98°N, 111.88°W
Report Text: KHIF 192158Z 19011KT 10SM BKN070 07/M03 A3011 RMK AO2A SLP193 T00681034
Loading
Personal Weather Stations






























Interactive Weather Map New forecast layout! Learn more

10-Day Weather Forecast

Advertisements
Track Severe Weather on mobile